Lesley Pg — MXUG5 — position and weather

sailwx.info

Track history (hours):
 
Tides and Currents Weather Stations Pressure Air Temp Water Temp Dewpoint Dewpoint Depression Visibility Wind Speed Wind Dir Waves Ship Positions

Lesley Pg

Last reported at 2014-Jul-29 07:27 UTC. Time now 2014-Jul-30 13:16 UTC.
Position N 15°51' W 061°45'.

Length 102 m; draft 5.4 m.

Type: Tanker. MMSI: 234910000.

Date/timePositionNaut miles runAvg speedWind from/ knotsBaromVisibWave heightAir tempDewpointWater temp
2014-Jul-29 07:27N 15°51' W 061°45'3811.3
2014-Jul-29 04:03N 16°22' W 062°08'1711.0
2014-Jul-29 02:31N 16°36' W 062°18'2310.8
2014-Jul-29 00:25N 16°55' W 062°31'  
2014-Jul-26 13:33N 15°56' W 061°46'3310.8
2014-Jul-26 10:32N 16°23' W 062°05'1010.2
2014-Jul-26 09:33N 16°31' W 062°12'14 9.8
2014-Jul-26 08:10N 16°42' W 062°20'1710.1
2014-Jul-26 06:29N 16°55' W 062°31'6210.5
2014-Jul-26 00:32N 17°48' W 063°05'13 3.0
2014-Jul-25 20:15N 18°01' W 063°05'0 0.0
2014-Jul-25 19:33N 18°01' W 063°05'0 0.0
2014-Jul-25 18:33N 18°01' W 063°05'0 0.0
2014-Jul-25 17:30N 18°01' W 063°05'0 0.0
2014-Jul-25 16:33N 18°01' W 063°05'0 0.0
2014-Jul-25 15:33N 18°01' W 063°05'0 0.0
2014-Jul-25 14:33N 18°01' W 063°05'0 0.0
2014-Jul-25 13:21N 18°01' W 063°05'0 0.0
2014-Jul-25 12:09N 18°01' W 063°05'0 0.0
2014-Jul-25 11:27N 18°01' W 063°05'0 0.0
2014-Jul-25 10:27N 18°01' W 063°05'0 0.0
2014-Jul-25 09:16N 18°01' W 063°05'0 0.0
2014-Jul-25 08:15N 18°01' W 063°05'0 0.0
2014-Jul-25 07:27N 18°01' W 063°05'0 0.0
2014-Jul-25 05:33N 18°01' W 063°05'0 0.0
2014-Jul-25 03:21N 18°01' W 063°05'0 0.0
2014-Jul-25 02:33N 18°01' W 063°05'0 0.0
2014-Jul-25 01:33N 18°01' W 063°05'0 0.0
2014-Jul-24 23:24N 18°01' W 063°05'0 0.0
2014-Jul-24 22:21N 18°01' W 063°05'0 0.0
2014-Jul-24 21:12N 18°01' W 063°05'0 0.0
2014-Jul-24 20:27N 18°01' W 063°05'0 0.0
2014-Jul-24 17:27N 18°01' W 063°05'0 0.0
2014-Jul-24 16:33N 18°01' W 063°05'0 0.1
2014-Jul-24 15:30N 18°01' W 063°05'1 1.0
2014-Jul-24 14:26N 18°01' W 063°06'0 0.0
2014-Jul-24 13:12N 18°01' W 063°06'0 0.0
2014-Jul-24 12:31N 18°01' W 063°06'0 0.0
2014-Jul-24 11:15N 18°01' W 063°06'0 0.0
2014-Jul-24 10:17N 18°01' W 063°06'6 6.5
2014-Jul-24 09:24N 17°55' W 063°05'  
Track history (hours):
 
Tides and Currents Weather Stations Pressure Air Temp Water Temp Dewpoint Dewpoint Depression Visibility Wind Speed Wind Dir Waves Ship Positions

Lesley Pg

Last reported at 2014-Jul-29 07:27 UTC. Time now 2014-Jul-30 13:16 UTC.
Position N 15°51' W 061°45'.

Length 102 m; draft 5.4 m.

Type: Tanker. MMSI: 234910000.

Date/timePositionNaut miles runAvg speedWind from/ knotsBaromVisibWave heightAir tempDewpointWater temp
2014-Jul-29 07:27N 15°51' W 061°45'3811.3
2014-Jul-29 04:03N 16°22' W 062°08'1711.0
2014-Jul-29 02:31N 16°36' W 062°18'2310.8
2014-Jul-29 00:25N 16°55' W 062°31'  
2014-Jul-26 13:33N 15°56' W 061°46'3310.8
2014-Jul-26 10:32N 16°23' W 062°05'1010.2
2014-Jul-26 09:33N 16°31' W 062°12'14 9.8
2014-Jul-26 08:10N 16°42' W 062°20'1710.1
2014-Jul-26 06:29N 16°55' W 062°31'6210.5
2014-Jul-26 00:32N 17°48' W 063°05'13 3.0
2014-Jul-25 20:15N 18°01' W 063°05'0 0.0
2014-Jul-25 19:33N 18°01' W 063°05'0 0.0
2014-Jul-25 18:33N 18°01' W 063°05'0 0.0
2014-Jul-25 17:30N 18°01' W 063°05'0 0.0
2014-Jul-25 16:33N 18°01' W 063°05'0 0.0
2014-Jul-25 15:33N 18°01' W 063°05'0 0.0
2014-Jul-25 14:33N 18°01' W 063°05'0 0.0
2014-Jul-25 13:21N 18°01' W 063°05'0 0.0
2014-Jul-25 12:09N 18°01' W 063°05'0 0.0
2014-Jul-25 11:27N 18°01' W 063°05'0 0.0
2014-Jul-25 10:27N 18°01' W 063°05'0 0.0
2014-Jul-25 09:16N 18°01' W 063°05'0 0.0
2014-Jul-25 08:15N 18°01' W 063°05'0 0.0
2014-Jul-25 07:27N 18°01' W 063°05'0 0.0
2014-Jul-25 05:33N 18°01' W 063°05'0 0.0
2014-Jul-25 03:21N 18°01' W 063°05'0 0.0
2014-Jul-25 02:33N 18°01' W 063°05'0 0.0
2014-Jul-25 01:33N 18°01' W 063°05'0 0.0
2014-Jul-24 23:24N 18°01' W 063°05'0 0.0
2014-Jul-24 22:21N 18°01' W 063°05'0 0.0
2014-Jul-24 21:12N 18°01' W 063°05'0 0.0
2014-Jul-24 20:27N 18°01' W 063°05'0 0.0
2014-Jul-24 17:27N 18°01' W 063°05'0 0.0
2014-Jul-24 16:33N 18°01' W 063°05'0 0.1
2014-Jul-24 15:30N 18°01' W 063°05'1 1.0
2014-Jul-24 14:26N 18°01' W 063°06'0 0.0
2014-Jul-24 13:12N 18°01' W 063°06'0 0.0
2014-Jul-24 12:31N 18°01' W 063°06'0 0.0
2014-Jul-24 11:15N 18°01' W 063°06'0 0.0
2014-Jul-24 10:17N 18°01' W 063°06'6 6.5
2014-Jul-24 09:24N 17°55' W 063°05'  

Dump ship's entire track history